Champion, Canada
Current Conditions -  °F | °C
As of 12:00 PM on Friday 31 Oct 2014 (Local Time) from CYQL Reporting Station
Broken Clouds Broken Clouds  
Wind Chill: 13°   Ceiling: 17000
Heat Index: 13°   Visibility: 40mi
Dew Point:   Wind: 15mph
Humidity: 51%   Direction: 200°SSW
Pressure: 29.67"   Gusts: NA
Location:  50.22°N, 113.15°W
Report Text: CYQL 311800Z 20013KT 40SM BKN170 BKN300 13/03 A2967 RMK AC6CI1 SLP057 DENSITY ALT 3700FT
Loading
Personal Weather Stations






























Interactive Weather Map
Tropical Storm Tracking
New forecast layout! Learn more

10-Day Weather Forecast

Advertisements
Track Severe Weather on mobile